createdAt,value
2022-08-28T00:00:47.348Z,16.80
2022-08-28T00:03:17.482Z,18.40
2022-08-28T00:05:46.771Z,19.20
2022-08-28T00:08:17.830Z,16.30
2022-08-28T00:10:46.211Z,18.48
2022-08-28T00:13:18.936Z,17.27
2022-08-28T00:15:49.078Z,13.68
2022-08-28T00:18:17.039Z,17.15
2022-08-28T00:20:50.380Z,13.77
2022-08-28T00:23:21.579Z,11.93
2022-08-28T00:25:49.072Z,12.02
2022-08-28T00:28:23.718Z,14.68
2022-08-28T00:30:53.870Z,12.82
2022-08-28T00:35:54.745Z,12.52
2022-08-28T00:38:25.655Z,12.10
2022-08-28T00:40:57.257Z,11.23
2022-08-28T00:43:36.872Z,12.05
2022-08-28T00:46:09.442Z,10.73
2022-08-28T00:48:37.473Z,10.75
2022-08-28T00:51:25.511Z,10.68
2022-08-28T00:53:58.553Z,11.82
2022-08-28T00:56:29.274Z,11.07
2022-08-28T00:59:03.131Z,11.90
2022-08-28T01:01:30.522Z,11.30
2022-08-28T01:03:58.479Z,11.25
2022-08-28T01:06:28.474Z,12.25
2022-08-28T01:08:56.337Z,12.20
2022-08-28T01:11:26.634Z,14.90
2022-08-28T01:13:56.984Z,12.70
2022-08-28T01:16:32.331Z,12.48
2022-08-28T01:19:02.566Z,13.93
2022-08-28T01:21:36.846Z,13.60
2022-08-28T01:24:09.401Z,11.88
2022-08-28T01:26:38.611Z,11.52
2022-08-28T01:29:07.386Z,10.65
2022-08-28T01:31:35.827Z,10.43
2022-08-28T01:34:03.437Z,9.80
2022-08-28T01:36:31.412Z,11.63
2022-08-28T01:39:03.475Z,10.35
2022-08-28T01:41:32.289Z,10.10
2022-08-28T01:43:59.869Z,9.18
2022-08-28T01:46:27.372Z,10.35
2022-08-28T01:48:55.108Z,11.05
2022-08-28T01:51:24.584Z,12.02
2022-08-28T01:53:52.625Z,9.93
2022-08-28T01:56:20.283Z,9.82
2022-08-28T01:58:49.057Z,9.85
2022-08-28T02:01:19.618Z,8.02
2022-08-28T02:03:48.618Z,8.73
2022-08-28T02:06:17.947Z,7.70
2022-08-28T02:08:46.917Z,8.10
2022-08-28T02:11:15.265Z,6.45
2022-08-28T02:13:43.087Z,6.80
2022-08-28T02:16:16.939Z,6.63
2022-08-28T02:18:44.487Z,7.03
2022-08-28T02:21:12.792Z,7.97
2022-08-28T02:23:43.655Z,7.20
2022-08-28T02:26:13.341Z,7.53
2022-08-28T02:28:41.371Z,7.13
2022-08-28T02:31:09.591Z,7.28
2022-08-28T02:33:39.557Z,7.72
2022-08-28T02:36:09.431Z,7.43
2022-08-28T02:38:37.132Z,8.02
2022-08-28T02:41:05.014Z,8.07
2022-08-28T02:43:33.765Z,8.40
2022-08-28T02:46:01.201Z,8.55
2022-08-28T02:48:30.037Z,9.25
2022-08-28T02:51:01.386Z,10.95
2022-08-28T02:53:29.611Z,10.35
2022-08-28T02:55:58.467Z,8.63
2022-08-28T02:58:27.464Z,8.87
2022-08-28T03:00:57.081Z,9.32
2022-08-28T03:03:27.799Z,8.95
2022-08-28T03:05:56.251Z,9.77
2022-08-28T03:08:27.132Z,9.75
2022-08-28T03:10:55.510Z,9.75
2022-08-28T03:13:27.278Z,9.88
2022-08-28T03:15:56.187Z,9.55
2022-08-28T03:18:25.253Z,10.20
2022-08-28T03:20:53.343Z,9.70
2022-08-28T03:23:26.861Z,9.73
2022-08-28T03:25:57.791Z,9.52
2022-08-28T03:28:26.908Z,9.27
2022-08-28T03:30:54.744Z,8.07
2022-08-28T03:33:22.512Z,9.45
2022-08-28T03:35:51.093Z,8.85
2022-08-28T03:38:18.815Z,8.90
2022-08-28T03:40:47.852Z,9.63
2022-08-28T03:43:18.589Z,9.65
2022-08-28T03:45:54.497Z,9.15
2022-08-28T03:48:25.068Z,9.52
2022-08-28T03:50:54.477Z,9.35
2022-08-28T03:53:24.817Z,9.65
2022-08-28T03:58:21.016Z,9.07
2022-08-28T04:00:50.695Z,10.43
2022-08-28T04:03:18.954Z,9.60
2022-08-28T04:05:46.990Z,10.93
2022-08-28T04:08:16.190Z,9.75
2022-08-28T04:10:44.294Z,9.52
2022-08-28T04:15:43.080Z,9.15
2022-08-28T04:18:11.394Z,11.13
2022-08-28T04:20:39.375Z,10.23
2022-08-28T04:23:12.625Z,10.63
2022-08-28T04:25:40.999Z,10.38
2022-08-28T04:28:09.102Z,10.55
2022-08-28T04:30:36.606Z,9.63
2022-08-28T04:33:06.358Z,9.52
2022-08-28T04:35:34.893Z,9.13
2022-08-28T04:38:05.568Z,9.38
2022-08-28T04:40:33.297Z,9.73
2022-08-28T04:43:00.670Z,10.02
2022-08-28T04:45:29.687Z,9.33
2022-08-28T04:47:58.211Z,9.90
2022-08-28T04:50:29.090Z,11.18
2022-08-28T04:52:57.055Z,9.88
2022-08-28T04:55:33.792Z,10.90
2022-08-28T04:58:13.596Z,10.60
2022-08-28T05:00:42.789Z,9.83
2022-08-28T05:03:11.595Z,9.90
2022-08-28T05:05:44.765Z,10.30
2022-08-28T05:08:13.617Z,11.60
2022-08-28T05:10:42.175Z,11.02
2022-08-28T05:13:11.362Z,10.68
2022-08-28T05:15:41.532Z,10.63
2022-08-28T05:18:09.565Z,12.35
2022-08-28T05:20:37.310Z,10.63
2022-08-28T05:23:08.625Z,10.73
2022-08-28T05:25:39.652Z,10.65
2022-08-28T05:28:10.244Z,10.73
2022-08-28T05:30:40.933Z,9.32
2022-08-28T05:33:10.648Z,10.53
2022-08-28T05:35:40.981Z,10.65
2022-08-28T05:38:10.374Z,10.55
2022-08-28T05:40:41.477Z,11.63
2022-08-28T05:43:09.261Z,10.95
2022-08-28T05:45:37.003Z,10.95
2022-08-28T05:48:04.766Z,10.52
2022-08-28T05:50:32.283Z,11.10
2022-08-28T05:53:00.011Z,10.63
2022-08-28T05:55:28.887Z,10.98
2022-08-28T05:58:17.663Z,12.13
2022-08-28T06:00:45.623Z,11.00
2022-08-28T06:03:13.463Z,12.02
2022-08-28T06:05:40.745Z,11.20
2022-08-28T06:08:11.491Z,11.13
2022-08-28T06:10:49.251Z,11.73
2022-08-28T06:13:19.095Z,10.95
2022-08-28T06:15:48.463Z,10.43
2022-08-28T06:18:18.101Z,11.07
2022-08-28T06:20:47.145Z,11.35
2022-08-28T06:23:16.702Z,10.90
2022-08-28T06:25:54.031Z,9.80
2022-08-28T06:28:27.027Z,11.63
2022-08-28T06:31:18.570Z,10.63
2022-08-28T06:33:42.830Z,10.80
2022-08-28T06:36:13.421Z,11.38
2022-08-28T06:38:46.492Z,10.95
2022-08-28T06:41:15.765Z,11.20
2022-08-28T06:46:13.116Z,11.63
2022-08-28T06:48:41.291Z,11.77
2022-08-28T06:51:11.744Z,10.52
2022-08-28T06:53:41.453Z,11.10
2022-08-28T06:56:11.583Z,11.02
2022-08-28T06:58:50.332Z,13.05
2022-08-28T07:01:25.739Z,13.25
2022-08-28T07:03:56.460Z,12.35
2022-08-28T07:06:24.294Z,11.43
2022-08-28T07:08:52.898Z,12.52
2022-08-28T07:11:26.276Z,12.77
2022-08-28T07:13:56.735Z,12.07
2022-08-28T07:16:26.118Z,11.25
2022-08-28T07:18:54.564Z,10.43
2022-08-28T07:21:22.508Z,10.45
2022-08-28T07:23:50.679Z,10.85
2022-08-28T07:26:20.549Z,10.25
2022-08-28T07:28:48.965Z,10.18
2022-08-28T07:31:20.333Z,9.73
2022-08-28T07:33:53.504Z,10.27
2022-08-28T07:36:29.168Z,10.05
2022-08-28T07:38:59.617Z,9.35
2022-08-28T07:41:30.725Z,9.00
2022-08-28T07:44:16.956Z,9.45
2022-08-28T07:49:28.149Z,8.55
2022-08-28T07:51:55.623Z,8.73
2022-08-28T07:54:23.384Z,8.82
2022-08-28T07:56:52.755Z,8.95
2022-08-28T07:59:20.483Z,8.48
2022-08-28T08:01:52.359Z,7.93
2022-08-28T08:04:22.331Z,8.15
2022-08-28T08:06:58.208Z,9.13
2022-08-28T08:09:31.978Z,8.13
2022-08-28T08:12:01.883Z,7.93
2022-08-28T08:14:32.163Z,8.60
2022-08-28T08:17:07.978Z,8.63
2022-08-28T08:19:37.203Z,9.55
2022-08-28T08:22:06.491Z,9.60
2022-08-28T08:24:34.391Z,8.73
2022-08-28T08:27:03.335Z,9.30
2022-08-28T08:29:36.827Z,8.68
2022-08-28T08:32:08.127Z,9.48
2022-08-28T08:34:38.945Z,9.32
2022-08-28T08:37:11.249Z,8.20
2022-08-28T08:39:39.612Z,9.88
2022-08-28T08:42:11.258Z,9.00
2022-08-28T08:44:41.402Z,8.60
2022-08-28T08:47:15.355Z,8.48
2022-08-28T08:49:50.873Z,7.90
2022-08-28T08:52:30.344Z,9.23
2022-08-28T08:55:16.171Z,8.02
2022-08-28T08:57:46.113Z,8.68
2022-08-28T09:00:17.988Z,7.57
2022-08-28T09:02:53.518Z,8.32
2022-08-28T09:05:24.131Z,8.20
2022-08-28T09:07:58.596Z,7.90
2022-08-28T09:10:36.321Z,8.40
2022-08-28T09:13:14.146Z,8.10
2022-08-28T09:15:48.797Z,8.65
2022-08-28T09:18:21.810Z,7.68
2022-08-28T09:20:50.724Z,7.78
2022-08-28T09:23:18.385Z,7.13
2022-08-28T09:26:04.538Z,8.07
2022-08-28T09:28:36.339Z,7.90
2022-08-28T09:31:06.564Z,7.72
2022-08-28T09:33:41.808Z,7.25
2022-08-28T09:36:29.164Z,8.20
2022-08-28T09:39:09.494Z,7.18
2022-08-28T09:41:59.199Z,7.88
2022-08-28T09:44:26.780Z,7.75
2022-08-28T09:46:54.195Z,6.80
2022-08-28T09:49:28.782Z,7.38
2022-08-28T09:51:59.615Z,8.65
2022-08-28T09:54:34.452Z,8.55
2022-08-28T09:57:03.640Z,7.35
2022-08-28T10:02:13.780Z,7.03
2022-08-28T10:05:02.350Z,6.70
2022-08-28T10:07:39.132Z,6.82
2022-08-28T10:10:22.077Z,7.18
2022-08-28T10:13:02.797Z,6.35
2022-08-28T10:15:50.039Z,6.88
2022-08-28T10:18:37.500Z,7.60
2022-08-28T10:21:14.141Z,6.95
2022-08-28T10:23:53.018Z,7.00
2022-08-28T10:26:30.005Z,6.63
2022-08-28T10:29:12.894Z,7.35
2022-08-28T10:31:48.210Z,6.93
2022-08-28T10:34:29.797Z,6.97
2022-08-28T10:37:06.659Z,7.07
2022-08-28T10:39:44.942Z,6.32
2022-08-28T10:42:12.595Z,7.32
2022-08-28T10:44:50.238Z,6.90
2022-08-28T10:47:20.041Z,10.50
2022-08-28T10:49:53.761Z,7.47
2022-08-28T10:52:28.998Z,7.60
2022-08-28T10:55:03.152Z,6.70
2022-08-28T10:57:39.541Z,7.55
2022-08-28T11:00:14.357Z,7.07
2022-08-28T11:02:44.701Z,6.47
2022-08-28T11:05:12.767Z,6.60
2022-08-28T11:07:47.880Z,6.60
2022-08-28T11:10:22.733Z,6.65
2022-08-28T11:12:51.990Z,6.20
2022-08-28T11:15:42.345Z,6.85
2022-08-28T11:18:50.170Z,6.80
2022-08-28T11:21:24.627Z,5.88
2022-08-28T11:24:01.523Z,6.25
2022-08-28T11:26:35.985Z,6.32
2022-08-28T11:29:04.421Z,6.78
2022-08-28T11:31:40.738Z,6.38
2022-08-28T11:34:08.607Z,6.18
2022-08-28T11:37:02.981Z,6.38
2022-08-28T11:39:31.631Z,5.80
2022-08-28T11:42:37.716Z,5.93
2022-08-28T11:45:06.631Z,6.03
2022-08-28T11:47:44.899Z,7.47
2022-08-28T11:50:25.101Z,6.10
2022-08-28T11:53:23.997Z,8.30
2022-08-28T11:56:29.058Z,7.15
2022-08-28T11:59:12.753Z,6.18
2022-08-28T12:01:40.643Z,6.57
2022-08-28T12:04:12.621Z,6.60
2022-08-28T12:06:48.709Z,6.40
2022-08-28T12:09:43.917Z,6.95
2022-08-28T12:12:48.483Z,6.75
2022-08-28T12:15:41.499Z,6.30
2022-08-28T12:18:17.264Z,6.00
2022-08-28T12:21:00.220Z,5.75
2022-08-28T12:23:34.854Z,5.95
2022-08-28T12:26:04.670Z,5.47
2022-08-28T12:28:40.380Z,5.82
2022-08-28T12:31:56.562Z,6.05
2022-08-28T12:34:34.952Z,6.25
2022-08-28T12:37:04.394Z,6.13
2022-08-28T12:39:33.864Z,5.60
2022-08-28T12:42:03.653Z,5.90
2022-08-28T12:44:33.776Z,6.00
2022-08-28T12:47:01.433Z,6.63
2022-08-28T12:49:34.124Z,6.28
2022-08-28T12:52:11.356Z,6.10
2022-08-28T12:54:44.412Z,5.97
2022-08-28T12:57:15.500Z,6.18
2022-08-28T12:59:49.569Z,5.80
2022-08-28T13:02:25.174Z,5.85
2022-08-28T13:04:58.664Z,6.35
2022-08-28T13:07:32.450Z,6.22
2022-08-28T13:10:20.114Z,6.05
2022-08-28T13:12:56.106Z,5.90
2022-08-28T13:15:50.467Z,5.47
2022-08-28T13:18:59.515Z,6.72
2022-08-28T13:21:36.216Z,6.05
2022-08-28T13:24:39.296Z,6.38
2022-08-28T13:27:17.555Z,6.43
2022-08-28T13:30:00.600Z,6.10
2022-08-28T13:32:36.893Z,6.28
2022-08-28T13:38:20.035Z,6.25
2022-08-28T13:44:46.040Z,5.82
2022-08-28T13:47:14.056Z,6.80
2022-08-28T13:49:43.038Z,6.53
2022-08-28T13:52:12.460Z,6.60
2022-08-28T13:54:43.536Z,6.50
2022-08-28T13:57:12.440Z,6.57
2022-08-28T13:59:41.144Z,6.22
2022-08-28T14:02:31.469Z,6.43
2022-08-28T14:05:00.860Z,6.55
2022-08-28T14:07:29.520Z,6.85
2022-08-28T14:09:57.088Z,6.82
2022-08-28T14:12:28.641Z,5.93
2022-08-28T14:15:02.276Z,6.13
2022-08-28T14:17:32.448Z,5.75
2022-08-28T14:20:01.851Z,6.22
2022-08-28T14:22:35.654Z,5.78
2022-08-28T14:25:03.648Z,6.32
2022-08-28T14:27:31.190Z,5.75
2022-08-28T14:29:58.747Z,5.10
2022-08-28T14:32:26.221Z,6.03
2022-08-28T14:34:53.487Z,5.18
2022-08-28T14:37:22.088Z,5.60
2022-08-28T14:44:46.210Z,4.97
2022-08-28T14:47:13.745Z,5.63
2022-08-28T14:49:41.243Z,5.03
2022-08-28T14:52:08.673Z,5.28
2022-08-28T14:54:39.739Z,5.10
2022-08-28T14:57:07.029Z,5.65
2022-08-28T14:59:34.425Z,5.30
2022-08-28T15:02:02.642Z,5.63
2022-08-28T15:04:38.535Z,5.68
2022-08-28T15:07:11.040Z,6.03
2022-08-28T15:09:43.031Z,5.82
2022-08-28T15:12:12.523Z,6.70
2022-08-28T15:14:40.162Z,6.10
2022-08-28T15:17:08.638Z,6.00
2022-08-28T15:19:36.197Z,5.90
2022-08-28T15:22:04.384Z,6.13
2022-08-28T15:24:34.514Z,6.13
2022-08-28T15:27:05.127Z,6.32
2022-08-28T15:29:33.417Z,5.97
2022-08-28T15:32:01.831Z,6.22
2022-08-28T15:34:29.638Z,6.57
2022-08-28T15:36:58.205Z,6.60
2022-08-28T15:39:46.741Z,7.03
2022-08-28T15:42:15.994Z,6.15
2022-08-28T15:44:44.874Z,7.00
2022-08-28T15:47:14.250Z,7.82
2022-08-28T15:49:44.810Z,8.35
2022-08-28T15:52:16.335Z,9.68
2022-08-28T15:54:43.848Z,8.10
2022-08-28T15:57:13.120Z,7.88
2022-08-28T15:59:49.628Z,7.90
2022-08-28T16:02:20.687Z,7.60
2022-08-28T16:04:48.880Z,7.35
2022-08-28T16:07:18.934Z,7.97
2022-08-28T16:09:46.910Z,7.70
2022-08-28T16:12:14.301Z,8.52
2022-08-28T16:14:45.367Z,7.90
2022-08-28T16:17:12.651Z,9.25
2022-08-28T16:19:40.731Z,7.88
2022-08-28T16:22:10.005Z,8.50
2022-08-28T16:24:40.121Z,8.02
2022-08-28T16:27:15.494Z,7.35
2022-08-28T16:29:59.970Z,9.13
2022-08-28T16:32:27.529Z,9.00
2022-08-28T16:34:54.903Z,8.85
2022-08-28T16:37:23.025Z,8.18
2022-08-28T16:39:54.405Z,9.07
2022-08-28T16:42:22.018Z,8.52
2022-08-28T16:44:49.468Z,9.27
2022-08-28T16:47:18.445Z,9.77
2022-08-28T16:49:48.001Z,8.82
2022-08-28T16:52:15.977Z,9.35
2022-08-28T16:54:45.187Z,10.55
2022-08-28T16:57:16.621Z,11.10
2022-08-28T16:59:44.456Z,13.23
2022-08-28T17:02:13.216Z,13.40
2022-08-28T17:04:43.214Z,15.80
2022-08-28T17:07:11.318Z,13.95
2022-08-28T17:09:38.798Z,11.50
2022-08-28T17:12:09.001Z,9.57
2022-08-28T17:15:05.079Z,13.93
2022-08-28T17:17:38.958Z,10.55
2022-08-28T17:20:34.225Z,10.60
2022-08-28T17:23:02.568Z,10.60
2022-08-28T17:25:30.518Z,10.50
2022-08-28T17:28:00.977Z,9.85
2022-08-28T17:30:46.170Z,10.65
2022-08-28T17:33:45.155Z,9.15
2022-08-28T17:36:32.678Z,9.77
2022-08-28T17:39:05.193Z,9.85
2022-08-28T17:41:41.577Z,10.60
2022-08-28T17:44:22.865Z,11.40
2022-08-28T17:47:31.459Z,11.40
2022-08-28T17:50:09.241Z,11.23
2022-08-28T17:52:42.782Z,10.38
2022-08-28T17:56:00.681Z,10.38
2022-08-28T17:58:54.916Z,13.15
2022-08-28T18:01:35.682Z,12.45
2022-08-28T18:04:09.852Z,13.68
2022-08-28T18:06:42.234Z,13.68
2022-08-28T18:09:13.204Z,12.68
2022-08-28T18:11:45.967Z,11.23
2022-08-28T18:14:24.102Z,12.07
2022-08-28T18:16:52.894Z,10.85
2022-08-28T18:19:25.648Z,10.05
2022-08-28T18:21:53.594Z,10.02
2022-08-28T18:24:22.533Z,10.48
2022-08-28T18:26:54.907Z,10.75
2022-08-28T18:29:22.768Z,11.00
2022-08-28T18:31:52.945Z,11.43
2022-08-28T18:34:33.967Z,9.98
2022-08-28T18:37:02.092Z,10.00
2022-08-28T18:39:31.169Z,10.75
2022-08-28T18:41:59.966Z,10.60
2022-08-28T18:44:27.379Z,13.02
2022-08-28T18:46:55.966Z,11.27
2022-08-28T18:49:23.481Z,10.55
2022-08-28T18:51:51.016Z,11.30
2022-08-28T18:54:20.605Z,11.55
2022-08-28T18:56:50.477Z,10.95
2022-08-28T18:59:19.483Z,10.15
2022-08-28T19:01:47.195Z,10.18
2022-08-28T19:04:15.070Z,9.88
2022-08-28T19:06:42.755Z,11.05
2022-08-28T19:09:20.379Z,10.90
2022-08-28T19:11:49.959Z,10.52
2022-08-28T19:14:17.303Z,9.98
2022-08-28T19:16:44.786Z,10.38
2022-08-28T19:19:12.824Z,9.70
2022-08-28T19:21:40.399Z,8.93
2022-08-28T19:24:08.155Z,9.35
2022-08-28T19:26:37.231Z,10.13
2022-08-28T19:29:06.133Z,10.38
2022-08-28T19:31:37.106Z,10.55
2022-08-28T19:34:05.282Z,9.60
2022-08-28T19:36:34.813Z,9.75
2022-08-28T19:39:02.363Z,9.48
2022-08-28T19:41:30.272Z,10.35
2022-08-28T19:43:58.651Z,10.25
2022-08-28T19:46:35.976Z,10.60
2022-08-28T19:49:05.106Z,10.52
2022-08-28T19:51:34.768Z,10.32
2022-08-28T19:54:03.921Z,10.25
2022-08-28T19:56:34.285Z,10.38
2022-08-28T19:59:07.572Z,11.68
2022-08-28T20:01:38.688Z,11.38
2022-08-28T20:04:08.291Z,10.95
2022-08-28T20:06:37.349Z,12.85
2022-08-28T20:09:08.330Z,12.52
2022-08-28T20:11:45.122Z,10.75
2022-08-28T20:14:14.649Z,9.95
2022-08-28T20:16:45.967Z,11.23
2022-08-28T20:19:13.862Z,11.48
2022-08-28T20:21:44.473Z,10.73
2022-08-28T20:24:14.377Z,10.23
2022-08-28T20:26:42.911Z,11.20
2022-08-28T20:29:11.750Z,11.52
2022-08-28T20:31:40.605Z,12.05
2022-08-28T20:34:10.291Z,13.68
2022-08-28T20:36:38.680Z,26.25
2022-08-28T20:39:09.558Z,12.43
2022-08-28T20:41:39.429Z,10.77
2022-08-28T20:44:08.591Z,9.77
2022-08-28T20:46:40.872Z,10.25
2022-08-28T20:49:11.373Z,10.48
2022-08-28T20:51:58.933Z,12.15
2022-08-28T20:54:29.755Z,11.63
2022-08-28T20:56:59.285Z,11.55
2022-08-28T20:59:28.926Z,11.25
2022-08-28T21:02:05.422Z,11.95
2022-08-28T21:04:37.122Z,12.32
2022-08-28T21:07:06.971Z,11.10
2022-08-28T21:10:06.261Z,11.27
2022-08-28T21:12:22.620Z,11.32
2022-08-28T21:14:53.594Z,11.40
2022-08-28T21:17:29.991Z,10.23
2022-08-28T21:20:01.803Z,11.48
2022-08-28T21:22:31.618Z,10.00
2022-08-28T21:24:59.349Z,10.98
2022-08-28T21:27:27.065Z,10.70
2022-08-28T21:34:22.145Z,10.55
2022-08-28T21:37:04.046Z,10.43
2022-08-28T21:39:43.520Z,9.85
2022-08-28T21:42:19.062Z,9.00
2022-08-28T21:58:38.651Z,10.85
2022-08-28T22:01:06.970Z,10.88
2022-08-28T22:03:37.221Z,12.73
2022-08-28T22:06:13.999Z,14.57
2022-08-28T22:15:09.006Z,15.23
2022-08-28T22:18:00.851Z,13.82
2022-08-28T22:21:18.466Z,14.85
2022-08-28T22:24:35.837Z,14.13
2022-08-28T22:27:07.669Z,14.95
2022-08-28T22:29:36.800Z,14.52
2022-08-28T22:32:07.208Z,14.70
2022-08-28T22:34:37.993Z,12.88
2022-08-28T22:37:07.331Z,14.18
2022-08-28T22:42:05.175Z,14.02
2022-08-28T22:44:35.835Z,12.63
2022-08-28T22:47:03.768Z,12.05
2022-08-28T22:49:36.017Z,13.90
2022-08-28T22:52:10.469Z,12.63
2022-08-28T22:54:38.460Z,12.05
2022-08-28T22:57:11.771Z,12.88
2022-08-28T22:59:40.236Z,12.85
2022-08-28T23:02:09.261Z,11.65
2022-08-28T23:04:39.969Z,12.32
2022-08-28T23:07:08.865Z,13.77
2022-08-28T23:09:38.975Z,12.25
2022-08-28T23:12:08.959Z,11.70
2022-08-28T23:14:37.236Z,11.90
2022-08-28T23:17:12.402Z,11.50
2022-08-28T23:19:42.493Z,11.43
2022-08-28T23:22:12.741Z,12.35
2022-08-28T23:24:41.110Z,12.50
2022-08-28T23:27:34.766Z,12.35
2022-08-28T23:30:02.810Z,12.70
2022-08-28T23:32:30.918Z,12.05
2022-08-28T23:35:07.371Z,12.15
2022-08-28T23:37:38.069Z,14.07
2022-08-28T23:40:07.796Z,13.43
2022-08-28T23:42:35.601Z,13.63
2022-08-28T23:45:03.135Z,13.35
2022-08-28T23:47:32.829Z,13.30
2022-08-28T23:50:00.358Z,14.25
2022-08-28T23:52:29.507Z,13.80
2022-08-28T23:54:57.267Z,13.15
2022-08-28T23:57:26.985Z,14.00
2022-08-28T23:59:55.831Z,14.48
